Time;durP1;ratioP1;P1;durP2;ratioP2;P2;SDS_P1;SDS_P2;PMS_P1;PMS_P2;Temp;Humidity;BMP_temperature;BMP_pressure;BME280_temperature;BME280_humidity;BME280_pressure;Samples;Min_cycle;Max_cycle;Signal;HPM_P1;HPM_P2
2023/01/13 00:02:11;;;;;;;24.70;4.30;;;;;;;12.15;59.55;100334.50;5049887;28;20024;-40
2023/01/13 00:04:37;;;;;;;29.38;4.25;;;;;;;12.04;59.78;100339.75;5055411;28;20027;-42
2023/01/13 00:07:02;;;;;;;29.33;4.10;;;;;;;11.69;60.52;100349.31;5051354;28;20037;-42
2023/01/13 00:09:27;;;;;;;25.25;3.70;;;;;;;11.98;61.16;100349.31;5054195;28;20025;-41
2023/01/13 00:11:53;;;;;;;32.70;4.50;;;;;;;11.94;61.25;100358.06;5046925;28;20033;-43
2023/01/13 00:14:18;;;;;;;21.52;3.28;;;;;;;11.95;61.99;100352.84;5050992;28;20161;-42
2023/01/13 00:16:43;;;;;;;29.35;3.83;;;;;;;12.06;62.04;100350.19;5047121;28;20033;-45
2023/01/13 00:19:08;;;;;;;29.10;3.45;;;;;;;12.15;61.85;100348.44;5051291;28;20020;-41
2023/01/13 00:21:35;;;;;;;21.60;3.50;;;;;;;12.36;61.76;100346.66;5049972;28;20449;-41
2023/01/13 00:24:00;;;;;;;31.63;3.45;;;;;;;11.94;62.70;100348.47;5052806;28;20020;-43
2023/01/13 00:26:29;;;;;;;30.23;3.80;;;;;;;11.97;63.23;100345.84;5046597;28;20036;-42
2023/01/13 00:28:58;;;;;;;28.08;3.58;;;;;;;12.26;62.32;100337.13;5052886;28;20179;-40
2023/01/13 00:31:24;;;;;;;24.30;3.50;;;;;;;12.12;62.65;100340.63;5050088;28;20045;-40
2023/01/13 00:33:50;;;;;;;32.60;4.18;;;;;;;12.03;63.09;100327.53;5052398;28;20025;-40
2023/01/13 00:36:17;;;;;;;32.17;4.47;;;;;;;12.24;62.79;100324.03;5046532;28;20039;-43
2023/01/13 00:38:43;;;;;;;26.50;3.50;;;;;;;11.93;64.49;100320.59;5050649;28;20504;-41
2023/01/13 00:41:14;;;;;;;28.75;3.70;;;;;;;12.00;64.46;100330.19;5072873;22;20036;-42
2023/01/13 00:43:40;;;;;;;34.40;4.13;;;;;;;12.47;63.10;100326.59;5074276;28;20155;-42
2023/01/13 00:46:16;;;;;;;31.90;4.20;;;;;;;12.10;64.43;100328.41;5052221;28;20046;-41
2023/01/13 00:48:42;;;;;;;33.25;4.20;;;;;;;12.01;64.85;100313.63;5072437;28;20480;-44
2023/01/13 00:51:11;;;;;;;34.10;5.55;;;;;;;11.66;65.67;100307.50;5067376;28;20064;-41
2023/01/13 00:53:39;;;;;;;28.35;3.83;;;;;;;12.11;64.95;100294.44;5072521;28;20056;-41
2023/01/13 00:56:08;;;;;;;33.00;5.13;;;;;;;11.46;65.92;100294.47;5069374;28;20507;-45
2023/01/13 00:58:35;;;;;;;31.75;4.43;;;;;;;12.11;64.30;100293.56;5072626;28;20028;-42
2023/01/13 01:01:03;;;;;;;30.05;4.93;;;;;;;11.65;65.15;100297.94;5068164;28;20110;-40
2023/01/13 01:03:29;;;;;;;29.90;4.22;;;;;;;11.76;65.50;100302.34;5071086;28;20562;-43
2023/01/13 01:05:55;;;;;;;34.47;4.57;;;;;;;11.88;64.85;100298.84;5068128;28;20063;-43
2023/01/13 01:08:20;;;;;;;26.77;3.45;;;;;;;11.97;64.68;100303.16;5075530;28;20129;-41
2023/01/13 01:10:46;;;;;;;30.85;4.07;;;;;;;12.10;64.12;100303.16;5072337;28;20091;-42
2023/01/13 01:13:15;;;;;;;31.30;4.18;;;;;;;11.72;65.44;100312.72;5074143;28;20531;-42
2023/01/13 01:15:42;;;;;;;29.02;4.65;;;;;;;11.75;64.85;100300.59;5053322;28;20033;-42
2023/01/13 01:18:08;;;;;;;33.80;4.15;;;;;;;11.72;64.63;100291.84;5073814;28;20037;-42
2023/01/13 01:20:33;;;;;;;38.40;3.78;;;;;;;11.75;64.69;100284.06;5071224;28;20041;-43
2023/01/13 01:22:59;;;;;;;30.75;4.20;;;;;;;12.07;64.02;100297.09;5073999;28;20102;-42
2023/01/13 01:25:25;;;;;;;31.38;4.03;;;;;;;11.63;64.24;100308.41;5070956;28;20316;-41
2023/01/13 01:27:50;;;;;;;31.70;4.90;;;;;;;11.69;63.92;100300.56;5073835;28;20524;-42
2023/01/13 01:30:15;;;;;;;31.50;4.13;;;;;;;11.92;63.49;100305.78;5071186;28;20109;-43
2023/01/13 01:32:41;;;;;;;32.50;4.10;;;;;;;11.69;63.52;100303.19;5073692;28;20071;-40
2023/01/13 01:35:06;;;;;;;32.10;4.72;;;;;;;11.97;62.79;100298.81;5072766;28;20115;-47
2023/01/13 01:37:31;;;;;;;31.13;4.25;;;;;;;11.86;62.85;100299.72;5077792;28;20099;-43
2023/01/13 01:39:57;;;;;;;27.05;4.45;;;;;;;11.91;62.38;100298.81;5073825;28;20078;-42
2023/01/13 01:45:25;;;;;;;31.65;4.78;;;;;;;11.90;62.48;100276.19;5074393;28;20039;-42
2023/01/13 01:47:55;;;;;;;34.53;4.90;;;;;;;11.81;62.52;100301.47;5076797;28;20047;-41
2023/01/13 01:50:21;;;;;;;33.63;4.72;;;;;;;11.86;62.17;100307.53;5071282;28;20405;-40
2023/01/13 01:52:52;;;;;;;31.85;4.90;;;;;;;11.70;62.63;100307.53;5074594;28;20042;-41
2023/01/13 01:55:26;;;;;;;39.33;4.70;;;;;;;11.62;62.79;100309.25;5071465;28;20035;-42
2023/01/13 01:58:17;;;;;;;27.77;4.30;;;;;;;11.46;63.14;100304.91;5073710;28;20039;-40
2023/01/13 02:00:42;;;;;;;32.33;4.78;;;;;;;11.63;62.55;100299.69;5070198;28;20289;-41
2023/01/13 02:03:08;;;;;;;27.85;4.07;;;;;;;12.02;62.03;100288.34;5055708;28;20116;-41
2023/01/13 02:05:34;;;;;;;37.92;4.47;;;;;;;11.97;62.01;100272.69;5073185;28;20037;-41
2023/01/13 02:08:00;;;;;;;36.33;4.80;;;;;;;12.21;61.66;100274.38;5075734;28;20500;-44
2023/01/13 02:10:28;;;;;;;38.22;5.03;;;;;;;11.97;62.21;100279.66;5073065;28;20406;-42
2023/01/13 02:13:06;;;;;;;39.53;4.85;;;;;;;11.83;62.80;100274.47;5074735;28;20036;-44
2023/01/13 02:15:46;;;;;;;40.22;4.47;;;;;;;12.07;62.54;100266.59;5070291;28;20051;-44
2023/01/13 02:18:49;;;;;;;39.58;4.70;;;;;;;12.15;62.20;100261.31;5072973;28;20039;-44
2023/01/13 02:21:16;;;;;;;36.55;4.80;;;;;;;11.91;63.38;100272.72;5068016;28;20036;-44
2023/01/13 02:27:04;;;;;;;35.78;5.25;;;;;;;12.03;63.59;100270.06;5069381;28;20476;-42
2023/01/13 02:32:44;;;;;;;39.30;5.38;;;;;;;12.05;63.93;100254.41;5070009;28;20124;-40
2023/01/13 02:35:22;;;;;;;35.33;4.75;;;;;;;11.93;64.02;100263.13;5070944;28;20076;-41
2023/01/13 02:37:48;;;;;;;37.20;5.68;;;;;;;12.04;64.22;100271.81;5073093;28;20025;-46
2023/01/13 02:40:13;;;;;;;36.03;4.80;;;;;;;11.96;64.48;100267.47;5070480;28;20056;-47
2023/01/13 02:46:24;;;;;;;38.60;5.30;;;;;;;11.82;64.95;100269.25;5004200;28;20413;-44
2023/01/13 02:48:53;;;;;;;35.07;4.73;;;;;;;11.83;64.64;100265.78;5011118;28;20037;-44
2023/01/13 02:51:22;;;;;;;31.75;4.10;;;;;;;11.66;64.45;100277.06;5068119;28;20123;-41
2023/01/13 02:53:55;;;;;;;36.33;4.93;;;;;;;11.94;62.86;100264.88;5092651;28;20520;-46
2023/01/13 02:56:22;;;;;;;29.52;4.22;;;;;;;11.78;62.90;100277.06;5088391;28;20060;-41
2023/01/13 02:58:49;;;;;;;33.40;4.55;;;;;;;12.02;62.10;100273.56;5092970;28;20058;-44
2023/01/13 03:01:15;;;;;;;22.88;3.70;;;;;;;11.90;62.16;100268.34;5087748;28;20081;-43
2023/01/13 03:03:40;;;;;;;29.50;4.00;;;;;;;11.76;62.65;100276.22;5092777;28;20237;-45
2023/01/13 03:06:31;;;;;;;32.05;4.25;;;;;;;12.14;61.81;100270.91;5088429;28;20039;-44
2023/01/13 03:09:14;;;;;;;28.73;3.88;;;;;;;12.12;61.78;100277.03;5092557;28;20091;-45
2023/01/13 03:12:14;;;;;;;22.67;3.50;;;;;;;11.70;62.66;100289.25;5088138;28;20032;-42
2023/01/13 03:15:08;;;;;;;30.58;3.65;;;;;;;11.67;63.03;100285.75;5077574;28;20040;-42
2023/01/13 03:17:45;;;;;;;25.88;3.63;;;;;;;11.73;62.19;100286.66;5062131;28;20024;-46
2023/01/13 03:20:20;;;;;;;28.38;3.60;;;;;;;11.73;62.40;100286.66;5068699;28;20503;-40
2023/01/13 03:22:52;;;;;;;29.73;3.08;;;;;;;11.83;62.23;100278.84;5071252;28;20032;-43
2023/01/13 03:25:24;;;;;;;31.42;3.42;;;;;;;11.74;62.12;100282.31;5050808;28;20048;-45
2023/01/13 03:27:56;;;;;;;28.20;3.70;;;;;;;11.87;62.17;100263.16;5071678;28;20128;-41
2023/01/13 03:30:34;;;;;;;24.33;3.47;;;;;;;11.66;62.52;100263.13;5068953;28;20040;-39
2023/01/13 03:33:08;;;;;;;20.67;3.20;;;;;;;11.55;62.50;100264.88;5070852;28;20580;-42
2023/01/13 03:35:44;;;;;;;25.70;3.53;;;;;;;11.55;63.13;100277.94;5068658;28;20567;-41
2023/01/13 03:38:15;;;;;;;20.25;3.20;;;;;;;11.75;62.99;100250.09;5071186;28;20487;-41
2023/01/13 03:40:48;;;;;;;26.85;3.72;;;;;;;11.83;62.78;100257.94;5067625;28;20470;-42
2023/01/13 03:46:13;;;;;;;22.90;2.85;;;;;;;11.37;64.37;100250.09;5068200;28;20401;-40
2023/01/13 03:48:41;;;;;;;23.92;2.70;;;;;;;11.53;63.63;100240.50;5071883;28;20022;-41
2023/01/13 03:51:14;;;;;;;23.00;2.65;;;;;;;11.56;63.07;100253.56;5066106;28;20036;-43
2023/01/13 03:53:52;;;;;;;20.35;2.75;;;;;;;11.59;63.79;100254.41;5071933;28;20028;-45
2023/01/13 03:56:30;;;;;;;20.10;2.50;;;;;;;11.42;64.07;100257.91;5067626;28;20166;-43
2023/01/13 03:58:57;;;;;;;17.42;2.42;;;;;;;11.27;64.06;100253.56;5071454;28;20523;-42
2023/01/13 04:01:30;;;;;;;19.77;2.45;;;;;;;11.47;63.54;100253.56;5066329;28;20036;-42
2023/01/13 04:04:02;;;;;;;16.75;2.25;;;;;;;11.37;64.04;100248.34;5071582;28;20025;-44
2023/01/13 04:06:39;;;;;;;20.23;2.33;;;;;;;11.55;63.00;100251.81;5049746;28;20043;-42
2023/01/13 04:09:13;;;;;;;15.68;2.40;;;;;;;11.34;64.05;100255.31;5071528;28;20032;-40
2023/01/13 04:11:44;;;;;;;20.70;2.43;;;;;;;11.35;64.17;100265.75;5066914;28;20042;-41
2023/01/13 04:14:11;;;;;;;14.85;1.95;;;;;;;11.29;64.31;100270.97;5073641;28;20034;-44
2023/01/13 04:16:37;;;;;;;20.48;2.65;;;;;;;11.38;64.14;100263.16;5072885;28;20420;-43
2023/01/13 04:19:03;;;;;;;15.65;2.38;;;;;;;11.10;64.52;100256.16;5075310;28;20028;-42
2023/01/13 04:21:29;;;;;;;15.23;2.75;;;;;;;11.25;64.31;100256.19;5066659;28;20059;-41
2023/01/13 04:23:55;;;;;;;17.27;2.25;;;;;;;10.95;64.63;100264.84;5071867;28;20020;-42
2023/01/13 04:26:22;;;;;;;10.23;1.92;;;;;;;11.53;63.77;100256.16;5068920;28;20044;-40
2023/01/13 04:28:47;;;;;;;19.45;2.33;;;;;;;11.40;63.49;100263.16;5071992;28;20021;-42
2023/01/13 04:31:13;;;;;;;17.15;2.42;;;;;;;11.28;64.10;100248.34;5067707;28;20138;-41
2023/01/13 04:33:38;;;;;;;19.08;2.70;;;;;;;11.18;63.56;100264.00;5071480;28;20050;-41
2023/01/13 04:36:04;;;;;;;16.15;2.25;;;;;;;11.22;63.21;100270.97;5069137;28;20028;-42
2023/01/13 04:38:30;;;;;;;19.80;2.55;;;;;;;11.31;63.27;100257.91;5071773;28;20043;-45
2023/01/13 04:40:55;;;;;;;16.05;2.05;;;;;;;11.45;62.67;100266.63;5067780;28;20036;-41
2023/01/13 04:43:20;;;;;;;17.17;2.20;;;;;;;11.39;61.93;100267.50;5074871;28;20039;-42
2023/01/13 04:45:46;;;;;;;16.45;2.22;;;;;;;11.67;59.66;100263.13;5072778;28;20043;-43
2023/01/13 04:48:11;;;;;;;21.52;2.55;;;;;;;11.49;60.98;100276.19;5076440;28;20037;-43
2023/01/13 04:50:37;;;;;;;14.40;2.50;;;;;;;11.52;60.16;100270.13;5070786;28;20032;-42
2023/01/13 04:53:03;;;;;;;18.08;2.20;;;;;;;11.63;59.74;100273.59;5074318;28;20071;-42
2023/01/13 04:55:30;;;;;;;17.52;2.15;;;;;;;11.60;58.99;100270.97;5074051;28;20043;-41
2023/01/13 04:58:01;;;;;;;18.80;2.78;;;;;;;11.17;60.14;100277.91;5072965;28;20025;-43
2023/01/13 05:00:26;;;;;;;13.55;2.20;;;;;;;11.67;59.17;100276.19;5069061;28;20040;-42
2023/01/13 05:02:51;;;;;;;17.73;2.63;;;;;;;11.88;57.83;100277.94;5071463;28;20032;-43
2023/01/13 05:05:17;;;;;;;22.75;2.50;;;;;;;11.89;58.09;100277.09;5051068;28;20047;-43
2023/01/13 05:07:42;;;;;;;20.83;2.53;;;;;;;11.57;58.37;100281.41;5071249;28;20040;-41
2023/01/13 05:10:08;;;;;;;15.63;2.20;;;;;;;11.54;57.43;100281.41;5069158;28;20063;-41
2023/01/13 05:18:02;;;;;;;19.15;2.78;;;;;;;11.57;56.54;100279.69;5070369;28;20040;-43
2023/01/13 05:20:27;;;;;;;19.83;2.53;;;;;;;11.68;56.42;100283.16;5067949;28;20396;-42
2023/01/13 05:25:39;;;;;;;17.00;2.60;;;;;;;11.85;56.59;100271.84;5068806;28;20051;-40
2023/01/13 05:28:05;;;;;;;18.05;2.63;;;;;;;11.35;57.71;100263.13;5071212;28;20049;-45
2023/01/13 05:30:34;;;;;;;18.95;2.60;;;;;;;11.53;57.71;100267.47;5068478;28;20166;-40
2023/01/13 05:33:00;;;;;;;19.30;2.70;;;;;;;11.49;58.04;100257.91;5071680;28;20512;-41
2023/01/13 05:35:25;;;;;;;29.83;2.60;;;;;;;11.30;58.55;100274.44;5069345;28;20040;-46
2023/01/13 05:37:50;;;;;;;17.38;2.60;;;;;;;11.33;58.64;100270.09;5071595;28;20029;-41
2023/01/13 05:43:24;;;;;;;18.05;2.47;;;;;;;11.47;58.10;100277.03;5071425;28;20174;-41
2023/01/13 05:45:49;;;;;;;15.13;2.35;;;;;;;11.24;58.77;100284.88;5069361;28;20043;-40
2023/01/13 05:48:15;;;;;;;18.42;2.67;;;;;;;11.48;58.06;100271.84;5070885;28;20033;-43
2023/01/13 05:50:41;;;;;;;16.38;2.72;;;;;;;11.19;58.75;100277.03;5068826;28;20033;-40
2023/01/13 05:53:06;;;;;;;20.48;2.70;;;;;;;11.62;57.71;100272.72;5055358;28;20044;-42
2023/01/13 05:55:31;;;;;;;19.27;2.60;;;;;;;11.18;59.09;100287.47;5072436;28;20089;-43
2023/01/13 05:57:57;;;;;;;16.77;2.60;;;;;;;11.36;58.43;100280.53;5075201;28;20137;-43
2023/01/13 06:00:22;;;;;;;19.35;2.80;;;;;;;11.43;58.12;100281.41;5072788;28;20423;-43
2023/01/13 06:02:48;;;;;;;19.83;3.42;;;;;;;11.50;58.44;100284.91;5076442;28;20036;-41
2023/01/13 06:05:13;;;;;;;21.42;2.90;;;;;;;11.66;57.91;100279.66;5072604;28;20036;-41
2023/01/13 06:07:39;;;;;;;19.33;2.60;;;;;;;11.58;57.89;100288.38;5073544;28;20641;-44
2023/01/13 06:10:04;;;;;;;21.23;2.67;;;;;;;11.44;58.49;100301.44;5071611;28;20020;-41
2023/01/13 06:12:30;;;;;;;18.20;2.92;;;;;;;11.22;59.35;100281.41;5072977;28;20071;-43
2023/01/13 06:14:55;;;;;;;19.48;2.60;;;;;;;11.68;58.33;100288.38;5071529;28;20024;-41
2023/01/13 06:17:21;;;;;;;21.40;3.10;;;;;;;11.58;58.06;100291.88;5073884;28;20078;-41
2023/01/13 06:19:46;;;;;;;17.70;3.47;;;;;;;11.48;58.09;100297.06;5074888;28;20021;-40
2023/01/13 06:22:16;;;;;;;13.73;2.22;;;;;;;11.57;58.15;100294.47;5070308;28;20029;-40
2023/01/13 06:24:44;;;;;;;18.83;2.97;;;;;;;11.51;58.56;100305.78;5074735;28;20043;-41
2023/01/13 06:27:10;;;;;;;19.20;2.67;;;;;;;11.35;58.83;100296.19;5070208;28;20532;-42
2023/01/13 06:29:36;;;;;;;16.80;2.33;;;;;;;11.87;58.47;100296.22;5074458;28;20102;-43
2023/01/13 06:32:05;;;;;;;21.42;2.45;;;;;;;11.68;57.93;100300.56;5069759;28;20025;-41
2023/01/13 06:34:32;;;;;;;22.10;3.03;;;;;;;11.40;58.13;100307.53;5074150;28;20025;-42
2023/01/13 06:36:58;;;;;;;18.60;3.03;;;;;;;11.47;57.92;100304.03;5071015;28;20059;-43
2023/01/13 06:39:29;;;;;;;21.58;2.83;;;;;;;11.68;58.01;100309.25;5074369;28;20060;-42
2023/01/13 06:44:39;;;;;;;20.73;2.58;;;;;;;11.41;57.67;100317.06;5019927;28;20134;-43
2023/01/13 06:47:05;;;;;;;18.45;2.88;;;;;;;11.31;57.98;100305.75;5009594;28;20410;-42
2023/01/13 06:49:31;;;;;;;13.95;2.53;;;;;;;11.79;56.17;100293.63;5013398;28;20091;-47
2023/01/13 06:51:56;;;;;;;18.95;2.50;;;;;;;11.67;56.27;100314.47;5008550;28;20124;-43
2023/01/13 06:54:21;;;;;;;15.95;2.30;;;;;;;11.94;56.11;100322.34;5012300;28;20073;-43
2023/01/13 06:56:47;;;;;;;19.75;2.83;;;;;;;11.12;57.65;100306.59;5008613;28;20042;-43
2023/01/13 06:59:12;;;;;;;28.20;3.10;;;;;;;11.72;56.47;100321.44;5012182;28;20509;-44
2023/01/13 07:01:38;;;;;;;18.95;2.60;;;;;;;11.52;57.39;100317.09;5007717;28;20038;-43
2023/01/13 07:04:03;;;;;;;16.60;2.45;;;;;;;11.56;57.47;100345.81;5011881;28;20144;-43
2023/01/13 07:06:28;;;;;;;18.13;2.85;;;;;;;11.36;57.85;100319.69;5008305;28;20037;-43
2023/01/13 07:08:54;;;;;;;15.13;2.60;;;;;;;11.37;58.05;100317.94;5011969;28;20036;-48
2023/01/13 07:11:19;;;;;;;19.10;2.67;;;;;;;11.43;57.33;100311.84;5007744;28;20031;-41
2023/01/13 07:16:28;;;;;;;15.30;2.50;;;;;;;11.63;57.61;100336.25;5008140;28;20095;-43
2023/01/13 07:18:53;;;;;;;19.17;2.60;;;;;;;11.52;57.21;100336.25;5011854;28;20500;-42
2023/01/13 07:21:19;;;;;;;21.77;2.92;;;;;;;11.79;56.76;100324.97;5007122;28;20579;-44
2023/01/13 07:23:45;;;;;;;21.38;2.92;;;;;;;11.78;57.09;100338.88;5012045;28;20037;-44
2023/01/13 07:26:11;;;;;;;19.38;2.92;;;;;;;11.50;57.97;100337.09;5008274;28;20061;-47
2023/01/13 07:28:38;;;;;;;22.58;3.00;;;;;;;11.55;58.07;100323.19;5012128;28;20112;-44
2023/01/13 07:31:04;;;;;;;21.98;2.88;;;;;;;11.63;57.16;100337.13;5008495;28;20060;-47
2023/01/13 07:33:32;;;;;;;25.48;2.90;;;;;;;11.62;57.45;100337.97;5011792;28;20497;-47
2023/01/13 07:36:02;;;;;;;20.90;2.78;;;;;;;11.72;57.65;100331.88;5009923;28;20038;-44
2023/01/13 07:38:28;;;;;;;21.40;3.20;;;;;;;11.59;57.75;100337.09;5013066;28;20030;-46
2023/01/13 07:40:54;;;;;;;26.90;3.20;;;;;;;11.65;57.80;100347.53;5009755;28;20034;-45
2023/01/13 07:43:31;;;;;;;20.48;2.80;;;;;;;11.48;58.35;100355.38;5012848;28;20121;-43
2023/01/13 07:45:58;;;;;;;19.20;2.67;;;;;;;11.38;58.23;100341.44;5010472;28;20418;-46
2023/01/13 07:48:24;;;;;;;20.83;2.53;;;;;;;11.45;58.02;100328.41;5012147;28;20080;-44
2023/01/13 07:50:50;;;;;;;22.35;2.80;;;;;;;11.58;58.20;100348.44;5009783;28;20046;-45
2023/01/13 07:53:15;;;;;;;22.70;3.17;;;;;;;11.43;58.11;100358.84;5011349;28;20038;-42
2023/01/13 07:55:42;;;;;;;17.25;2.40;;;;;;;11.77;57.82;100360.66;5010157;28;20379;-48
2023/01/13 07:58:08;;;;;;;14.88;2.45;;;;;;;11.53;57.86;100368.41;5012568;28;20509;-42
2023/01/13 08:00:34;;;;;;;19.42;2.70;;;;;;;11.93;57.06;100375.47;5009865;28;20030;-43
2023/01/13 08:03:00;;;;;;;20.20;3.17;;;;;;;11.83;57.82;100384.19;5011215;28;20474;-44
2023/01/13 08:05:25;;;;;;;18.65;3.00;;;;;;;11.70;58.63;100359.75;5008769;28;20093;-46
2023/01/13 08:07:51;;;;;;;16.48;2.95;;;;;;;11.49;59.24;100372.78;5011590;28;20046;-45
2023/01/13 08:10:16;;;;;;;17.17;2.83;;;;;;;11.55;59.59;100378.00;5009202;28;20494;-44
2023/01/13 08:15:25;;;;;;;21.38;2.70;;;;;;;11.40;61.34;100391.03;5009967;28;20045;-42
2023/01/13 08:17:50;;;;;;;22.83;3.15;;;;;;;11.54;61.50;100404.97;5013078;28;20029;-42
2023/01/13 08:20:16;;;;;;;24.95;2.80;;;;;;;11.53;61.00;100403.22;5010817;28;20054;-47
2023/01/13 08:22:41;;;;;;;30.30;3.53;;;;;;;11.39;61.96;100398.00;5011277;28;20061;-42
2023/01/13 08:25:07;;;;;;;20.60;3.17;;;;;;;11.32;62.66;100411.91;5009433;28;20083;-43
2023/01/13 08:27:32;;;;;;;23.38;3.45;;;;;;;11.22;62.01;100422.31;5013707;28;20049;-42
2023/01/13 08:29:58;;;;;;;22.48;3.25;;;;;;;11.22;62.00;100407.50;5011330;28;20021;-44
2023/01/13 08:32:23;;;;;;;27.67;3.58;;;;;;;11.65;61.59;100413.69;5013435;28;20625;-43
2023/01/13 08:34:48;;;;;;;22.33;3.03;;;;;;;11.22;62.87;100412.72;5015607;28;20033;-45
2023/01/13 08:37:14;;;;;;;26.00;3.25;;;;;;;11.41;63.20;100405.81;5010721;28;20108;-43
2023/01/13 08:39:39;;;;;;;24.48;3.00;;;;;;;11.11;64.55;100410.94;5011140;28;20018;-42
2023/01/13 08:42:04;;;;;;;23.05;3.22;;;;;;;11.22;65.04;100401.44;5008032;28;20486;-45
2023/01/13 08:44:31;;;;;;;20.77;3.05;;;;;;;11.10;64.76;100409.22;5030608;28;20052;-44
2023/01/13 08:46:56;;;;;;;20.45;2.95;;;;;;;11.14;65.72;100406.63;5026978;28;20572;-43
2023/01/13 08:49:23;;;;;;;17.42;3.38;;;;;;;11.34;64.77;100423.19;5030431;28;20029;-44
2023/01/13 08:51:48;;;;;;;21.08;2.70;;;;;;;11.15;65.39;100421.41;5026264;28;20037;-43
2023/01/13 08:54:15;;;;;;;20.48;3.10;;;;;;;11.15;65.27;100434.44;5031463;28;20079;-45
2023/01/13 08:56:42;;;;;;;20.52;3.03;;;;;;;11.45;64.26;100432.81;5023766;28;20535;-43
2023/01/13 08:59:12;;;;;;;21.50;3.05;;;;;;;11.11;65.20;100444.84;5012303;28;20033;-43
2023/01/13 09:01:39;;;;;;;18.25;2.78;;;;;;;11.51;63.62;100444.16;5006687;28;20089;-43
2023/01/13 09:04:13;;;;;;;23.38;3.53;;;;;;;11.53;63.17;100449.34;5011165;28;20034;-44
2023/01/13 09:06:39;;;;;;;23.70;3.15;;;;;;;11.55;63.00;100447.63;5007113;28;20037;-44
2023/01/13 09:09:04;;;;;;;19.05;2.85;;;;;;;11.67;62.42;100452.88;5010473;28;20029;-48
2023/01/13 09:14:19;;;;;;;24.00;2.78;;;;;;;11.64;61.30;100452.88;5011038;28;20072;-42
2023/01/13 09:16:44;;;;;;;26.38;3.58;;;;;;;11.74;60.71;100465.09;5007516;28;20445;-43
2023/01/13 09:19:09;;;;;;;19.05;2.75;;;;;;;11.73;60.35;100459.00;5010706;28;20024;-44
2023/01/13 09:21:34;;;;;;;19.27;2.97;;;;;;;11.36;61.57;100439.72;5002498;28;20088;-44
2023/01/13 09:24:00;;;;;;;22.55;2.95;;;;;;;11.48;60.95;100465.00;5009097;28;20030;-44
2023/01/13 09:26:25;;;;;;;17.08;2.75;;;;;;;11.67;61.21;100463.31;5006560;28;20073;-46
2023/01/13 09:28:50;;;;;;;26.67;2.80;;;;;;;11.95;60.31;100473.00;5013667;28;20030;-43
2023/01/13 09:31:16;;;;;;;21.02;2.97;;;;;;;11.47;60.38;100459.75;5010450;28;20033;-45
2023/01/13 09:36:25;;;;;;;21.30;2.97;;;;;;;11.91;59.75;100491.25;5011501;28;20052;-43
2023/01/13 09:38:50;;;;;;;21.55;2.95;;;;;;;11.78;59.39;100498.19;5016030;28;20034;-44
2023/01/13 09:44:12;;;;;;;24.45;2.67;;;;;;;11.68;60.03;100501.63;5016724;28;20044;-45
2023/01/13 09:46:47;;;;;;;21.77;2.92;;;;;;;11.50;59.98;100481.56;5013351;28;20041;-42
2023/01/13 09:49:19;;;;;;;23.58;2.78;;;;;;;11.66;59.50;100482.44;5017545;28;20040;-45
2023/01/13 09:51:54;;;;;;;19.30;2.90;;;;;;;12.08;59.22;100507.81;5012375;28;20097;-45
2023/01/13 09:54:24;;;;;;;;;;;;;;;12.11;58.57;100511.31;5016057;28;20026;-43
2023/01/13 09:56:50;;;;;;;20.35;2.83;;;;;;;11.94;59.19;100510.44;5010353;28;20225;-43
2023/01/13 09:59:15;;;;;;;18.58;2.55;;;;;;;12.08;58.92;100513.91;5013186;28;20026;-45
2023/01/13 10:02:03;;;;;;;17.77;2.80;;;;;;;12.06;58.41;100527.88;5008813;28;20096;-45
2023/01/13 10:04:29;;;;;;;17.60;2.58;;;;;;;11.83;59.20;100532.19;5013504;28;20026;-44
2023/01/13 10:07:00;;;;;;;16.98;2.53;;;;;;;11.80;58.65;100540.88;5009324;28;20041;-45
2023/01/13 10:09:51;;;;;;;15.27;2.30;;;;;;;11.97;58.83;100538.28;5011077;28;20045;-42
2023/01/13 10:15:13;;;;;;;16.13;2.33;;;;;;;12.06;57.59;100552.25;5009949;28;20459;-43
2023/01/13 10:17:45;;;;;;;10.93;2.10;;;;;;;12.27;57.49;100546.19;5012499;28;20057;-43
2023/01/13 10:20:17;;;;;;;20.15;2.80;;;;;;;12.18;57.96;100539.22;5009782;28;20038;-41
2023/01/13 10:22:52;;;;;;;19.50;2.70;;;;;;;12.16;58.09;100546.16;5011682;28;20030;-44
2023/01/13 10:25:23;;;;;;;19.00;2.42;;;;;;;11.64;59.00;100567.75;5008843;28;20088;-43
2023/01/13 10:27:52;;;;;;;20.95;2.75;;;;;;;12.04;58.50;100567.06;5014886;28;20038;-44
2023/01/13 10:30:30;;;;;;;21.70;2.85;;;;;;;11.72;59.01;100571.25;5011659;28;20116;-45
2023/01/13 10:33:00;;;;;;;25.52;2.80;;;;;;;12.08;58.09;100554.84;5012084;28;20034;-42
2023/01/13 10:35:50;;;;;;;22.08;3.13;;;;;;;11.86;59.11;100556.56;5005098;28;20511;-43
2023/01/13 10:38:24;;;;;;;25.08;3.03;;;;;;;11.48;59.98;100584.19;5005009;28;20125;-43
2023/01/13 10:40:58;;;;;;;18.15;2.92;;;;;;;11.97;59.76;100585.31;5000142;28;20409;-43
2023/01/13 10:43:24;;;;;;;23.30;2.57;;;;;;;11.95;59.12;100569.66;5005759;28;20065;-46
2023/01/13 10:45:59;;;;;;;18.33;2.72;;;;;;;11.72;59.57;100590.41;5001871;28;20400;-42
2023/01/13 10:48:35;;;;;;;15.32;2.63;;;;;;;11.48;59.29;100598.13;5004608;28;20062;-47
2023/01/13 10:51:10;;;;;;;12.98;2.35;;;;;;;11.88;58.56;100588.78;5000408;28;20034;-43
2023/01/13 10:53:45;;;;;;;17.05;2.50;;;;;;;11.82;58.37;100572.22;5005219;28;20390;-40
2023/01/13 10:56:16;;;;;;;18.02;2.38;;;;;;;11.85;58.74;100580.91;4998072;28;20038;-42
2023/01/13 10:58:41;;;;;;;15.57;2.45;;;;;;;12.28;58.05;100599.34;5003953;28;20467;-45
2023/01/13 11:01:17;;;;;;;17.08;2.55;;;;;;;11.89;58.87;100598.38;5009332;28;20038;-41
2023/01/13 11:03:45;;;;;;;14.70;2.63;;;;;;;11.73;59.50;100597.41;5024595;28;20072;-43
2023/01/13 11:06:23;;;;;;;15.00;2.30;;;;;;;12.34;58.48;100604.56;5020721;28;20096;-45
2023/01/13 11:08:51;;;;;;;17.35;2.50;;;;;;;11.90;59.16;100621.00;5019874;28;20354;-45
2023/01/13 11:11:35;;;;;;;15.45;2.70;;;;;;;12.20;59.03;100605.41;5022488;28;20056;-43
2023/01/13 11:16:55;;;;;;;19.58;2.70;;;;;;;11.92;59.21;100629.72;5020603;28;20110;-42
2023/01/13 11:19:26;;;;;;;14.10;2.72;;;;;;;11.98;59.24;100634.09;5024498;28;20044;-44
2023/01/13 11:21:59;;;;;;;23.35;2.83;;;;;;;11.86;59.28;100631.44;5019642;28;20033;-43
2023/01/13 11:24:47;;;;;;;16.25;2.70;;;;;;;11.72;59.09;100636.53;5023724;28;20042;-41
2023/01/13 11:27:32;;;;;;;15.88;2.50;;;;;;;11.68;58.95;100625.22;5020460;28;20445;-45
2023/01/13 11:30:08;;;;;;;20.25;2.75;;;;;;;11.98;58.67;100645.41;5018330;28;20123;-41
2023/01/13 11:32:41;;;;;;;17.40;3.00;;;;;;;11.68;59.15;100637.41;5022291;28;20064;-44
2023/01/13 11:35:17;;;;;;;16.92;2.60;;;;;;;12.00;58.83;100654.13;5020061;28;20427;-46
2023/01/13 11:37:50;;;;;;;19.50;2.60;;;;;;;12.12;58.82;100641.13;5023460;28;20033;-45
2023/01/13 11:40:40;;;;;;;14.35;2.42;;;;;;;12.14;57.58;100646.31;5020025;28;20033;-43
2023/01/13 11:43:17;;;;;;;17.55;2.30;;;;;;;12.23;57.35;100649.00;5020127;28;21024;-46
2023/01/13 11:45:49;;;;;;;18.75;2.50;;;;;;;12.04;58.17;100645.44;5025169;28;20037;-43
2023/01/13 11:48:19;;;;;;;22.10;2.35;;;;;;;12.64;56.68;100649.06;5020710;28;20033;-44
2023/01/13 11:51:12;;;;;;;15.40;2.22;;;;;;;12.64;57.03;100658.66;5022160;28;20030;-45
2023/01/13 11:53:37;;;;;;;12.00;2.13;;;;;;;12.53;56.75;100662.13;5022451;28;20527;-47
2023/01/13 11:56:28;;;;;;;15.35;2.83;;;;;;;11.98;57.63;100647.16;5023472;28;20033;-43
2023/01/13 11:59:21;;;;;;;17.52;2.30;;;;;;;12.47;56.98;100659.50;5019504;28;20041;-45
2023/01/13 12:02:11;;;;;;;15.68;2.58;;;;;;;12.35;57.23;100659.47;5018905;28;20065;-45
2023/01/13 12:04:46;;;;;;;18.50;2.40;;;;;;;12.52;56.88;100667.34;5023088;28;20033;-42
2023/01/13 12:07:41;;;;;;;18.15;2.40;;;;;;;12.93;55.98;100681.34;5019318;28;20460;-43
2023/01/13 12:10:43;;;;;;;16.00;2.47;;;;;;;12.47;57.31;100661.25;5019308;28;20077;-46
2023/01/13 12:13:27;;;;;;;14.18;2.70;;;;;;;12.42;57.25;100673.44;5018998;28;20038;-44
2023/01/13 12:16:24;;;;;;;18.13;2.38;;;;;;;12.66;56.74;100678.72;5019582;28;20103;-43
2023/01/13 12:19:19;;;;;;;16.27;2.47;;;;;;;12.10;57.95;100689.88;5022217;28;20499;-46